sensor_id;sensor_type;location;lat;lon;timestamp;P1;durP1;ratioP1;P2;durP2;ratioP2
21741;SDS011;11033;47.490;11.116;2023-04-05T00:02:17;13.75;;;10.05;;
21741;SDS011;11033;47.490;11.116;2023-04-05T00:04:45;12.02;;;9.30;;
21741;SDS011;11033;47.490;11.116;2023-04-05T00:07:21;10.77;;;8.98;;
21741;SDS011;11033;47.490;11.116;2023-04-05T00:09:48;10.65;;;9.13;;
21741;SDS011;11033;47.490;11.116;2023-04-05T00:12:14;10.80;;;9.70;;
21741;SDS011;11033;47.490;11.116;2023-04-05T00:14:40;11.02;;;9.82;;
21741;SDS011;11033;47.490;11.116;2023-04-05T00:17:05;13.35;;;10.10;;
21741;SDS011;11033;47.490;11.116;2023-04-05T00:19:31;9.80;;;8.80;;
21741;SDS011;11033;47.490;11.116;2023-04-05T00:21:58;12.13;;;10.90;;
21741;SDS011;11033;47.490;11.116;2023-04-05T00:24:26;14.98;;;9.65;;
21741;SDS011;11033;47.490;11.116;2023-04-05T00:26:53;11.65;;;9.63;;
21741;SDS011;11033;47.490;11.116;2023-04-05T00:29:18;13.48;;;9.20;;
21741;SDS011;11033;47.490;11.116;2023-04-05T00:31:44;11.07;;;8.15;;
21741;SDS011;11033;47.490;11.116;2023-04-05T00:34:09;13.38;;;10.90;;
21741;SDS011;11033;47.490;11.116;2023-04-05T00:36:36;11.40;;;8.82;;
21741;SDS011;11033;47.490;11.116;2023-04-05T00:39:01;13.10;;;9.85;;
21741;SDS011;11033;47.490;11.116;2023-04-05T00:41:27;12.10;;;9.85;;
21741;SDS011;11033;47.490;11.116;2023-04-05T00:43:52;14.27;;;9.00;;
21741;SDS011;11033;47.490;11.116;2023-04-05T00:46:17;12.65;;;9.52;;
21741;SDS011;11033;47.490;11.116;2023-04-05T00:48:42;11.07;;;9.30;;
21741;SDS011;11033;47.490;11.116;2023-04-05T00:51:09;14.95;;;9.05;;
21741;SDS011;11033;47.490;11.116;2023-04-05T00:53:36;11.88;;;9.35;;
21741;SDS011;11033;47.490;11.116;2023-04-05T00:56:01;15.90;;;10.55;;
21741;SDS011;11033;47.490;11.116;2023-04-05T00:58:30;13.60;;;9.70;;
21741;SDS011;11033;47.490;11.116;2023-04-05T01:00:58;11.45;;;9.25;;
21741;SDS011;11033;47.490;11.116;2023-04-05T01:03:30;11.48;;;9.48;;
21741;SDS011;11033;47.490;11.116;2023-04-05T01:06:03;17.38;;;10.55;;
21741;SDS011;11033;47.490;11.116;2023-04-05T01:09:08;13.73;;;10.10;;
21741;SDS011;11033;47.490;11.116;2023-04-05T01:11:48;13.20;;;9.60;;
21741;SDS011;11033;47.490;11.116;2023-04-05T01:14:19;10.45;;;8.55;;
21741;SDS011;11033;47.490;11.116;2023-04-05T01:16:44;11.90;;;9.20;;
21741;SDS011;11033;47.490;11.116;2023-04-05T01:19:13;9.32;;;8.40;;
21741;SDS011;11033;47.490;11.116;2023-04-05T01:21:43;11.38;;;8.18;;
21741;SDS011;11033;47.490;11.116;2023-04-05T01:27:24;13.38;;;10.18;;
21741;SDS011;11033;47.490;11.116;2023-04-05T01:30:03;11.52;;;8.70;;
21741;SDS011;11033;47.490;11.116;2023-04-05T01:32:38;11.85;;;9.68;;
21741;SDS011;11033;47.490;11.116;2023-04-05T01:35:21;11.07;;;9.85;;
21741;SDS011;11033;47.490;11.116;2023-04-05T01:37:58;13.38;;;9.35;;
21741;SDS011;11033;47.490;11.116;2023-04-05T01:40:26;12.55;;;9.90;;
21741;SDS011;11033;47.490;11.116;2023-04-05T01:42:53;10.43;;;8.80;;
21741;SDS011;11033;47.490;11.116;2023-04-05T01:45:19;12.33;;;9.23;;
21741;SDS011;11033;47.490;11.116;2023-04-05T01:47:44;10.75;;;9.23;;
21741;SDS011;11033;47.490;11.116;2023-04-05T01:50:09;13.60;;;10.05;;
21741;SDS011;11033;47.490;11.116;2023-04-05T01:52:35;14.75;;;9.73;;
21741;SDS011;11033;47.490;11.116;2023-04-05T01:55:00;13.77;;;9.23;;
21741;SDS011;11033;47.490;11.116;2023-04-05T01:57:27;12.98;;;9.93;;
21741;SDS011;11033;47.490;11.116;2023-04-05T01:59:52;12.67;;;9.80;;
21741;SDS011;11033;47.490;11.116;2023-04-05T02:02:17;13.07;;;9.80;;
21741;SDS011;11033;47.490;11.116;2023-04-05T02:04:42;11.50;;;9.70;;
21741;SDS011;11033;47.490;11.116;2023-04-05T02:07:08;9.67;;;8.67;;
21741;SDS011;11033;47.490;11.116;2023-04-05T02:09:33;10.50;;;8.83;;
21741;SDS011;11033;47.490;11.116;2023-04-05T02:11:58;10.53;;;7.53;;
21741;SDS011;11033;47.490;11.116;2023-04-05T02:14:23;12.07;;;9.40;;
21741;SDS011;11033;47.490;11.116;2023-04-05T02:16:49;10.23;;;9.02;;
21741;SDS011;11033;47.490;11.116;2023-04-05T02:19:15;11.02;;;9.30;;
21741;SDS011;11033;47.490;11.116;2023-04-05T02:21:46;11.77;;;9.35;;
21741;SDS011;11033;47.490;11.116;2023-04-05T02:24:13;14.18;;;9.10;;
21741;SDS011;11033;47.490;11.116;2023-04-05T02:26:38;12.35;;;8.52;;
21741;SDS011;11033;47.490;11.116;2023-04-05T02:29:04;12.57;;;8.97;;
21741;SDS011;11033;47.490;11.116;2023-04-05T02:31:29;13.88;;;9.20;;
21741;SDS011;11033;47.490;11.116;2023-04-05T02:33:54;10.52;;;8.85;;
21741;SDS011;11033;47.490;11.116;2023-04-05T02:36:20;10.55;;;8.40;;
21741;SDS011;11033;47.490;11.116;2023-04-05T02:38:46;11.10;;;9.55;;
21741;SDS011;11033;47.490;11.116;2023-04-05T02:41:11;11.38;;;8.88;;
21741;SDS011;11033;47.490;11.116;2023-04-05T02:43:36;10.00;;;8.27;;
21741;SDS011;11033;47.490;11.116;2023-04-05T02:46:02;16.95;;;10.68;;
21741;SDS011;11033;47.490;11.116;2023-04-05T02:48:28;11.70;;;8.10;;
21741;SDS011;11033;47.490;11.116;2023-04-05T02:50:53;14.35;;;9.20;;
21741;SDS011;11033;47.490;11.116;2023-04-05T02:53:19;10.57;;;9.13;;
21741;SDS011;11033;47.490;11.116;2023-04-05T02:55:51;12.48;;;8.80;;
21741;SDS011;11033;47.490;11.116;2023-04-05T02:58:18;15.48;;;9.55;;
21741;SDS011;11033;47.490;11.116;2023-04-05T03:00:44;12.90;;;9.30;;
21741;SDS011;11033;47.490;11.116;2023-04-05T03:03:14;16.83;;;10.07;;
21741;SDS011;11033;47.490;11.116;2023-04-05T03:05:41;14.20;;;9.18;;
21741;SDS011;11033;47.490;11.116;2023-04-05T03:08:07;12.95;;;9.45;;
21741;SDS011;11033;47.490;11.116;2023-04-05T03:10:32;12.90;;;9.27;;
21741;SDS011;11033;47.490;11.116;2023-04-05T03:13:00;10.55;;;8.90;;
21741;SDS011;11033;47.490;11.116;2023-04-05T03:15:25;12.98;;;8.38;;
21741;SDS011;11033;47.490;11.116;2023-04-05T03:17:52;13.00;;;8.70;;
21741;SDS011;11033;47.490;11.116;2023-04-05T03:20:17;12.32;;;8.85;;
21741;SDS011;11033;47.490;11.116;2023-04-05T03:22:42;11.25;;;9.40;;
21741;SDS011;11033;47.490;11.116;2023-04-05T03:25:07;11.07;;;7.77;;
21741;SDS011;11033;47.490;11.116;2023-04-05T03:27:33;11.82;;;9.25;;
21741;SDS011;11033;47.490;11.116;2023-04-05T03:29:58;10.97;;;9.60;;
21741;SDS011;11033;47.490;11.116;2023-04-05T03:32:23;14.17;;;9.07;;
21741;SDS011;11033;47.490;11.116;2023-04-05T03:34:49;10.82;;;9.57;;
21741;SDS011;11033;47.490;11.116;2023-04-05T03:37:15;13.07;;;9.73;;
21741;SDS011;11033;47.490;11.116;2023-04-05T03:39:40;15.50;;;10.33;;
21741;SDS011;11033;47.490;11.116;2023-04-05T03:42:05;11.63;;;9.03;;
21741;SDS011;11033;47.490;11.116;2023-04-05T03:44:31;11.97;;;9.67;;
21741;SDS011;11033;47.490;11.116;2023-04-05T03:46:56;12.52;;;9.55;;
21741;SDS011;11033;47.490;11.116;2023-04-05T03:49:22;12.52;;;10.02;;
21741;SDS011;11033;47.490;11.116;2023-04-05T03:51:47;13.52;;;9.40;;
21741;SDS011;11033;47.490;11.116;2023-04-05T03:54:12;11.77;;;8.30;;
21741;SDS011;11033;47.490;11.116;2023-04-05T03:56:38;12.50;;;9.05;;
21741;SDS011;11033;47.490;11.116;2023-04-05T03:59:03;10.30;;;8.98;;
21741;SDS011;11033;47.490;11.116;2023-04-05T04:01:29;12.38;;;9.88;;
21741;SDS011;11033;47.490;11.116;2023-04-05T04:03:55;12.18;;;8.48;;
21741;SDS011;11033;47.490;11.116;2023-04-05T04:06:20;15.80;;;10.07;;
21741;SDS011;11033;47.490;11.116;2023-04-05T04:08:46;12.85;;;8.45;;
21741;SDS011;11033;47.490;11.116;2023-04-05T04:11:12;9.65;;;8.48;;
21741;SDS011;11033;47.490;11.116;2023-04-05T04:13:37;11.05;;;9.25;;
21741;SDS011;11033;47.490;11.116;2023-04-05T04:16:02;13.57;;;11.13;;
21741;SDS011;11033;47.490;11.116;2023-04-05T04:18:28;10.90;;;9.70;;
21741;SDS011;11033;47.490;11.116;2023-04-05T04:20:53;11.95;;;8.80;;
21741;SDS011;11033;47.490;11.116;2023-04-05T04:23:18;16.00;;;10.40;;
21741;SDS011;11033;47.490;11.116;2023-04-05T04:25:44;11.18;;;9.00;;
21741;SDS011;11033;47.490;11.116;2023-04-05T04:28:10;13.57;;;9.25;;
21741;SDS011;11033;47.490;11.116;2023-04-05T04:30:37;13.13;;;9.05;;
21741;SDS011;11033;47.490;11.116;2023-04-05T04:33:02;11.52;;;9.20;;
21741;SDS011;11033;47.490;11.116;2023-04-05T04:35:29;16.00;;;9.77;;
21741;SDS011;11033;47.490;11.116;2023-04-05T04:37:59;12.13;;;8.95;;
21741;SDS011;11033;47.490;11.116;2023-04-05T04:40:29;13.02;;;8.82;;
21741;SDS011;11033;47.490;11.116;2023-04-05T04:43:02;11.13;;;8.05;;
21741;SDS011;11033;47.490;11.116;2023-04-05T04:45:50;12.45;;;8.70;;
21741;SDS011;11033;47.490;11.116;2023-04-05T04:48:18;11.05;;;9.32;;
21741;SDS011;11033;47.490;11.116;2023-04-05T04:50:44;13.45;;;8.98;;
21741;SDS011;11033;47.490;11.116;2023-04-05T04:53:11;14.98;;;10.02;;
21741;SDS011;11033;47.490;11.116;2023-04-05T04:55:40;10.32;;;8.75;;
21741;SDS011;11033;47.490;11.116;2023-04-05T04:58:06;11.60;;;9.15;;
21741;SDS011;11033;47.490;11.116;2023-04-05T05:00:38;13.50;;;10.27;;
21741;SDS011;11033;47.490;11.116;2023-04-05T05:03:08;10.90;;;9.38;;
21741;SDS011;11033;47.490;11.116;2023-04-05T05:05:35;13.18;;;9.13;;
21741;SDS011;11033;47.490;11.116;2023-04-05T05:08:06;11.65;;;8.32;;
21741;SDS011;11033;47.490;11.116;2023-04-05T05:10:31;15.55;;;10.32;;
21741;SDS011;11033;47.490;11.116;2023-04-05T05:12:57;17.88;;;10.93;;
21741;SDS011;11033;47.490;11.116;2023-04-05T05:15:22;14.47;;;10.27;;
21741;SDS011;11033;47.490;11.116;2023-04-05T05:17:47;12.20;;;9.77;;
21741;SDS011;11033;47.490;11.116;2023-04-05T05:20:16;13.57;;;10.57;;
21741;SDS011;11033;47.490;11.116;2023-04-05T05:22:42;12.45;;;9.52;;
21741;SDS011;11033;47.490;11.116;2023-04-05T05:25:07;13.65;;;10.68;;
21741;SDS011;11033;47.490;11.116;2023-04-05T05:27:33;16.10;;;10.77;;
21741;SDS011;11033;47.490;11.116;2023-04-05T05:29:59;14.38;;;9.93;;
21741;SDS011;11033;47.490;11.116;2023-04-05T05:32:25;13.23;;;9.90;;
21741;SDS011;11033;47.490;11.116;2023-04-05T05:34:50;15.48;;;11.00;;
21741;SDS011;11033;47.490;11.116;2023-04-05T05:37:16;18.23;;;11.02;;
21741;SDS011;11033;47.490;11.116;2023-04-05T05:39:41;12.82;;;10.10;;
21741;SDS011;11033;47.490;11.116;2023-04-05T05:42:10;14.90;;;9.93;;
21741;SDS011;11033;47.490;11.116;2023-04-05T05:44:35;15.00;;;9.80;;
21741;SDS011;11033;47.490;11.116;2023-04-05T05:47:01;16.52;;;10.52;;
21741;SDS011;11033;47.490;11.116;2023-04-05T05:49:27;14.15;;;10.88;;
21741;SDS011;11033;47.490;11.116;2023-04-05T05:51:52;15.05;;;11.40;;
21741;SDS011;11033;47.490;11.116;2023-04-05T05:54:17;16.08;;;10.85;;
21741;SDS011;11033;47.490;11.116;2023-04-05T05:56:43;14.00;;;10.70;;
21741;SDS011;11033;47.490;11.116;2023-04-05T05:59:08;17.67;;;12.18;;
21741;SDS011;11033;47.490;11.116;2023-04-05T06:01:34;15.75;;;10.63;;
21741;SDS011;11033;47.490;11.116;2023-04-05T06:04:06;13.05;;;10.27;;
21741;SDS011;11033;47.490;11.116;2023-04-05T06:06:34;17.55;;;11.40;;
21741;SDS011;11033;47.490;11.116;2023-04-05T06:09:00;16.13;;;10.80;;
21741;SDS011;11033;47.490;11.116;2023-04-05T06:11:25;14.23;;;10.02;;
21741;SDS011;11033;47.490;11.116;2023-04-05T06:13:50;16.83;;;11.00;;
21741;SDS011;11033;47.490;11.116;2023-04-05T06:16:18;15.52;;;11.07;;
21741;SDS011;11033;47.490;11.116;2023-04-05T06:18:44;12.15;;;9.85;;
21741;SDS011;11033;47.490;11.116;2023-04-05T06:21:09;15.48;;;10.93;;
21741;SDS011;11033;47.490;11.116;2023-04-05T06:23:35;14.07;;;9.40;;
21741;SDS011;11033;47.490;11.116;2023-04-05T06:26:00;17.52;;;10.50;;
21741;SDS011;11033;47.490;11.116;2023-04-05T06:28:26;16.02;;;9.75;;
21741;SDS011;11033;47.490;11.116;2023-04-05T06:30:52;14.13;;;9.70;;
21741;SDS011;11033;47.490;11.116;2023-04-05T06:33:17;14.00;;;9.93;;
21741;SDS011;11033;47.490;11.116;2023-04-05T06:35:43;13.10;;;10.30;;
21741;SDS011;11033;47.490;11.116;2023-04-05T06:38:08;13.87;;;10.33;;
21741;SDS011;11033;47.490;11.116;2023-04-05T06:40:33;14.38;;;10.40;;
21741;SDS011;11033;47.490;11.116;2023-04-05T06:42:59;13.35;;;10.27;;
21741;SDS011;11033;47.490;11.116;2023-04-05T06:45:24;13.35;;;10.18;;
21741;SDS011;11033;47.490;11.116;2023-04-05T06:47:50;16.40;;;10.48;;
21741;SDS011;11033;47.490;11.116;2023-04-05T06:50:15;15.32;;;10.60;;
21741;SDS011;11033;47.490;11.116;2023-04-05T06:52:40;11.73;;;9.13;;
21741;SDS011;11033;47.490;11.116;2023-04-05T06:55:06;13.97;;;10.63;;
21741;SDS011;11033;47.490;11.116;2023-04-05T06:57:32;16.15;;;11.50;;
21741;SDS011;11033;47.490;11.116;2023-04-05T06:59:58;17.85;;;10.65;;
21741;SDS011;11033;47.490;11.116;2023-04-05T07:02:23;14.90;;;10.87;;
21741;SDS011;11033;47.490;11.116;2023-04-05T07:04:48;16.63;;;11.27;;
21741;SDS011;11033;47.490;11.116;2023-04-05T07:07:13;14.73;;;10.80;;
21741;SDS011;11033;47.490;11.116;2023-04-05T07:09:39;18.20;;;11.98;;
21741;SDS011;11033;47.490;11.116;2023-04-05T07:12:05;14.57;;;11.23;;
21741;SDS011;11033;47.490;11.116;2023-04-05T07:14:32;15.45;;;12.13;;
21741;SDS011;11033;47.490;11.116;2023-04-05T07:16:59;16.25;;;11.18;;
21741;SDS011;11033;47.490;11.116;2023-04-05T07:19:24;16.00;;;10.25;;
21741;SDS011;11033;47.490;11.116;2023-04-05T07:21:50;15.88;;;11.15;;
21741;SDS011;11033;47.490;11.116;2023-04-05T07:24:16;16.50;;;11.60;;
21741;SDS011;11033;47.490;11.116;2023-04-05T07:26:41;13.75;;;10.95;;
21741;SDS011;11033;47.490;11.116;2023-04-05T07:29:06;14.82;;;11.20;;
21741;SDS011;11033;47.490;11.116;2023-04-05T07:31:33;13.18;;;11.20;;
21741;SDS011;11033;47.490;11.116;2023-04-05T07:33:59;14.55;;;10.60;;
21741;SDS011;11033;47.490;11.116;2023-04-05T07:36:25;12.05;;;10.60;;
21741;SDS011;11033;47.490;11.116;2023-04-05T07:38:51;14.23;;;10.73;;
21741;SDS011;11033;47.490;11.116;2023-04-05T07:41:17;13.95;;;10.18;;
21741;SDS011;11033;47.490;11.116;2023-04-05T07:43:44;18.08;;;10.75;;
21741;SDS011;11033;47.490;11.116;2023-04-05T07:46:09;15.43;;;11.68;;
21741;SDS011;11033;47.490;11.116;2023-04-05T07:48:35;14.40;;;10.07;;
21741;SDS011;11033;47.490;11.116;2023-04-05T07:51:04;13.55;;;10.88;;
21741;SDS011;11033;47.490;11.116;2023-04-05T07:53:31;28.65;;;11.57;;
21741;SDS011;11033;47.490;11.116;2023-04-05T07:55:56;16.88;;;11.02;;
21741;SDS011;11033;47.490;11.116;2023-04-05T07:58:23;15.68;;;11.40;;
21741;SDS011;11033;47.490;11.116;2023-04-05T08:00:48;15.77;;;11.75;;
21741;SDS011;11033;47.490;11.116;2023-04-05T08:03:13;15.30;;;10.67;;
21741;SDS011;11033;47.490;11.116;2023-04-05T08:05:39;13.82;;;10.95;;
21741;SDS011;11033;47.490;11.116;2023-04-05T08:08:04;13.55;;;10.90;;
21741;SDS011;11033;47.490;11.116;2023-04-05T08:10:29;16.20;;;11.93;;
21741;SDS011;11033;47.490;11.116;2023-04-05T08:12:55;16.00;;;12.20;;
21741;SDS011;11033;47.490;11.116;2023-04-05T08:15:20;15.38;;;11.85;;
21741;SDS011;11033;47.490;11.116;2023-04-05T08:17:45;14.82;;;10.80;;
21741;SDS011;11033;47.490;11.116;2023-04-05T08:20:11;13.50;;;10.35;;
21741;SDS011;11033;47.490;11.116;2023-04-05T08:22:36;14.60;;;10.00;;
21741;SDS011;11033;47.490;11.116;2023-04-05T08:25:01;10.70;;;8.90;;
21741;SDS011;11033;47.490;11.116;2023-04-05T08:27:27;11.63;;;8.98;;
21741;SDS011;11033;47.490;11.116;2023-04-05T08:29:52;11.23;;;9.07;;
21741;SDS011;11033;47.490;11.116;2023-04-05T08:32:17;11.77;;;9.10;;
21741;SDS011;11033;47.490;11.116;2023-04-05T08:34:43;12.00;;;8.90;;
21741;SDS011;11033;47.490;11.116;2023-04-05T08:37:08;13.47;;;7.90;;
21741;SDS011;11033;47.490;11.116;2023-04-05T08:39:34;10.73;;;8.63;;
21741;SDS011;11033;47.490;11.116;2023-04-05T08:42:03;12.52;;;8.63;;
21741;SDS011;11033;47.490;11.116;2023-04-05T08:44:35;11.63;;;9.55;;
21741;SDS011;11033;47.490;11.116;2023-04-05T08:47:01;11.35;;;9.70;;
21741;SDS011;11033;47.490;11.116;2023-04-05T08:49:26;10.73;;;8.20;;
21741;SDS011;11033;47.490;11.116;2023-04-05T08:51:52;12.32;;;9.13;;
21741;SDS011;11033;47.490;11.116;2023-04-05T08:54:18;13.18;;;8.73;;
21741;SDS011;11033;47.490;11.116;2023-04-05T08:56:43;13.55;;;9.32;;
21741;SDS011;11033;47.490;11.116;2023-04-05T08:59:14;10.52;;;9.40;;
21741;SDS011;11033;47.490;11.116;2023-04-05T09:01:41;11.48;;;8.85;;
21741;SDS011;11033;47.490;11.116;2023-04-05T09:04:11;10.85;;;8.85;;
21741;SDS011;11033;47.490;11.116;2023-04-05T09:06:40;10.65;;;8.27;;
21741;SDS011;11033;47.490;11.116;2023-04-05T09:09:06;15.18;;;9.63;;
21741;SDS011;11033;47.490;11.116;2023-04-05T09:11:33;13.65;;;9.60;;
21741;SDS011;11033;47.490;11.116;2023-04-05T09:14:01;10.48;;;7.93;;
21741;SDS011;11033;47.490;11.116;2023-04-05T09:16:28;16.23;;;8.73;;
21741;SDS011;11033;47.490;11.116;2023-04-05T09:18:54;9.52;;;8.35;;
21741;SDS011;11033;47.490;11.116;2023-04-05T09:21:19;11.77;;;8.98;;
21741;SDS011;11033;47.490;11.116;2023-04-05T09:23:50;11.48;;;8.60;;
21741;SDS011;11033;47.490;11.116;2023-04-05T09:26:23;11.88;;;8.70;;
21741;SDS011;11033;47.490;11.116;2023-04-05T09:28:49;9.38;;;7.60;;
21741;SDS011;11033;47.490;11.116;2023-04-05T09:31:31;8.50;;;7.63;;
21741;SDS011;11033;47.490;11.116;2023-04-05T09:34:01;10.85;;;8.00;;
21741;SDS011;11033;47.490;11.116;2023-04-05T09:36:28;11.55;;;7.97;;
21741;SDS011;11033;47.490;11.116;2023-04-05T09:39:03;10.75;;;8.30;;
21741;SDS011;11033;47.490;11.116;2023-04-05T09:41:30;8.95;;;7.57;;
21741;SDS011;11033;47.490;11.116;2023-04-05T09:43:56;11.30;;;8.27;;
21741;SDS011;11033;47.490;11.116;2023-04-05T09:46:28;10.27;;;7.80;;
21741;SDS011;11033;47.490;11.116;2023-04-05T09:48:58;11.60;;;8.38;;
21741;SDS011;11033;47.490;11.116;2023-04-05T09:51:30;9.18;;;7.85;;
21741;SDS011;11033;47.490;11.116;2023-04-05T09:54:00;8.07;;;7.20;;
21741;SDS011;11033;47.490;11.116;2023-04-05T09:56:31;10.38;;;8.00;;
21741;SDS011;11033;47.490;11.116;2023-04-05T09:59:07;10.98;;;7.78;;
21741;SDS011;11033;47.490;11.116;2023-04-05T10:01:34;10.25;;;8.75;;
21741;SDS011;11033;47.490;11.116;2023-04-05T10:04:01;9.77;;;8.40;;
21741;SDS011;11033;47.490;11.116;2023-04-05T10:06:39;8.73;;;7.82;;
21741;SDS011;11033;47.490;11.116;2023-04-05T10:09:06;10.63;;;7.90;;
21741;SDS011;11033;47.490;11.116;2023-04-05T10:11:32;10.50;;;8.50;;
21741;SDS011;11033;47.490;11.116;2023-04-05T10:14:00;11.38;;;8.30;;
21741;SDS011;11033;47.490;11.116;2023-04-05T10:16:28;8.80;;;7.90;;
21741;SDS011;11033;47.490;11.116;2023-04-05T10:18:56;9.50;;;8.40;;
21741;SDS011;11033;47.490;11.116;2023-04-05T10:21:22;9.70;;;8.70;;
21741;SDS011;11033;47.490;11.116;2023-04-05T10:24:00;9.98;;;8.18;;
21741;SDS011;11033;47.490;11.116;2023-04-05T10:29:13;13.20;;;8.98;;
21741;SDS011;11033;47.490;11.116;2023-04-05T10:31:50;8.70;;;7.80;;
21741;SDS011;11033;47.490;11.116;2023-04-05T10:37:40;8.43;;;7.57;;
21741;SDS011;11033;47.490;11.116;2023-04-05T10:40:16;9.63;;;8.00;;
21741;SDS011;11033;47.490;11.116;2023-04-05T10:42:45;9.05;;;7.55;;
21741;SDS011;11033;47.490;11.116;2023-04-05T10:45:12;10.88;;;8.05;;
21741;SDS011;11033;47.490;11.116;2023-04-05T10:50:23;9.38;;;7.57;;
21741;SDS011;11033;47.490;11.116;2023-04-05T10:52:49;10.73;;;7.72;;
21741;SDS011;11033;47.490;11.116;2023-04-05T10:55:16;8.90;;;8.02;;
21741;SDS011;11033;47.490;11.116;2023-04-05T10:57:42;10.55;;;8.00;;
21741;SDS011;11033;47.490;11.116;2023-04-05T11:00:09;9.02;;;7.72;;
21741;SDS011;11033;47.490;11.116;2023-04-05T11:02:35;9.38;;;7.57;;
21741;SDS011;11033;47.490;11.116;2023-04-05T11:05:02;7.90;;;6.95;;
21741;SDS011;11033;47.490;11.116;2023-04-05T11:07:39;7.65;;;6.78;;
21741;SDS011;11033;47.490;11.116;2023-04-05T11:10:07;9.05;;;7.65;;
21741;SDS011;11033;47.490;11.116;2023-04-05T11:20:47;10.48;;;7.93;;
21741;SDS011;11033;47.490;11.116;2023-04-05T11:23:17;9.20;;;7.93;;
21741;SDS011;11033;47.490;11.116;2023-04-05T11:25:45;7.63;;;6.93;;
21741;SDS011;11033;47.490;11.116;2023-04-05T11:28:33;9.07;;;8.18;;
21741;SDS011;11033;47.490;11.116;2023-04-05T11:31:11;10.95;;;7.55;;
21741;SDS011;11033;47.490;11.116;2023-04-05T11:36:06;8.20;;;7.20;;
21741;SDS011;11033;47.490;11.116;2023-04-05T11:38:33;8.35;;;7.10;;
21741;SDS011;11033;47.490;11.116;2023-04-05T11:43:31;9.23;;;8.32;;
21741;SDS011;11033;47.490;11.116;2023-04-05T11:46:00;9.57;;;7.18;;
21741;SDS011;11033;47.490;11.116;2023-04-05T11:48:28;7.45;;;6.68;;
21741;SDS011;11033;47.490;11.116;2023-04-05T11:50:53;8.15;;;7.25;;
21741;SDS011;11033;47.490;11.116;2023-04-05T11:53:20;8.20;;;7.40;;
21741;SDS011;11033;47.490;11.116;2023-04-05T11:55:46;10.35;;;8.00;;
21741;SDS011;11033;47.490;11.116;2023-04-05T11:58:15;9.27;;;7.43;;
21741;SDS011;11033;47.490;11.116;2023-04-05T12:00:43;7.43;;;6.70;;
21741;SDS011;11033;47.490;11.116;2023-04-05T12:03:10;7.30;;;6.60;;
21741;SDS011;11033;47.490;11.116;2023-04-05T12:05:52;7.82;;;6.80;;
21741;SDS011;11033;47.490;11.116;2023-04-05T12:08:18;7.75;;;6.50;;
21741;SDS011;11033;47.490;11.116;2023-04-05T12:13:30;8.05;;;7.30;;
21741;SDS011;11033;47.490;11.116;2023-04-05T12:15:58;8.57;;;6.57;;
21741;SDS011;11033;47.490;11.116;2023-04-05T12:18:25;8.32;;;6.63;;
21741;SDS011;11033;47.490;11.116;2023-04-05T12:20:54;7.45;;;6.38;;
21741;SDS011;11033;47.490;11.116;2023-04-05T12:23:20;5.82;;;5.35;;
21741;SDS011;11033;47.490;11.116;2023-04-05T12:25:49;6.40;;;5.68;;
21741;SDS011;11033;47.490;11.116;2023-04-05T12:28:16;6.90;;;6.05;;
21741;SDS011;11033;47.490;11.116;2023-04-05T12:30:51;7.97;;;6.43;;
21741;SDS011;11033;47.490;11.116;2023-04-05T12:33:30;7.00;;;6.30;;
21741;SDS011;11033;47.490;11.116;2023-04-05T12:35:57;5.78;;;5.28;;
21741;SDS011;11033;47.490;11.116;2023-04-05T12:38:26;6.57;;;5.97;;
21741;SDS011;11033;47.490;11.116;2023-04-05T12:40:52;6.32;;;5.70;;
21741;SDS011;11033;47.490;11.116;2023-04-05T12:43:18;7.22;;;5.70;;
21741;SDS011;11033;47.490;11.116;2023-04-05T12:45:44;5.93;;;5.43;;
21741;SDS011;11033;47.490;11.116;2023-04-05T12:48:20;6.10;;;5.50;;
21741;SDS011;11033;47.490;11.116;2023-04-05T12:50:47;6.05;;;5.22;;
21741;SDS011;11033;47.490;11.116;2023-04-05T12:53:22;5.90;;;5.40;;
21741;SDS011;11033;47.490;11.116;2023-04-05T12:58:16;5.65;;;5.03;;
21741;SDS011;11033;47.490;11.116;2023-04-05T13:00:42;7.43;;;5.40;;
21741;SDS011;11033;47.490;11.116;2023-04-05T13:03:13;5.70;;;5.18;;
21741;SDS011;11033;47.490;11.116;2023-04-05T13:05:40;6.13;;;5.53;;
21741;SDS011;11033;47.490;11.116;2023-04-05T13:08:06;5.75;;;5.25;;
21741;SDS011;11033;47.490;11.116;2023-04-05T13:10:32;7.10;;;5.38;;
21741;SDS011;11033;47.490;11.116;2023-04-05T13:12:57;5.90;;;5.40;;
21741;SDS011;11033;47.490;11.116;2023-04-05T13:15:22;11.70;;;5.60;;
21741;SDS011;11033;47.490;11.116;2023-04-05T13:17:47;6.00;;;5.30;;
21741;SDS011;11033;47.490;11.116;2023-04-05T13:20:17;5.38;;;4.88;;
21741;SDS011;11033;47.490;11.116;2023-04-05T13:22:43;5.10;;;4.63;;
21741;SDS011;11033;47.490;11.116;2023-04-05T13:25:09;6.72;;;5.35;;
21741;SDS011;11033;47.490;11.116;2023-04-05T13:27:34;6.38;;;5.78;;
21741;SDS011;11033;47.490;11.116;2023-04-05T13:29:59;6.10;;;5.50;;
21741;SDS011;11033;47.490;11.116;2023-04-05T13:32:25;5.97;;;4.97;;
21741;SDS011;11033;47.490;11.116;2023-04-05T13:34:51;6.13;;;5.55;;
21741;SDS011;11033;47.490;11.116;2023-04-05T13:37:16;6.90;;;5.50;;
21741;SDS011;11033;47.490;11.116;2023-04-05T13:39:42;5.80;;;5.30;;
21741;SDS011;11033;47.490;11.116;2023-04-05T13:42:07;5.83;;;5.37;;
21741;SDS011;11033;47.490;11.116;2023-04-05T13:44:32;5.43;;;4.93;;
21741;SDS011;11033;47.490;11.116;2023-04-05T13:46:58;6.25;;;5.75;;
21741;SDS011;11033;47.490;11.116;2023-04-05T13:49:23;6.25;;;5.10;;
21741;SDS011;11033;47.490;11.116;2023-04-05T13:51:48;6.07;;;5.57;;
21741;SDS011;11033;47.490;11.116;2023-04-05T13:54:14;6.13;;;5.63;;
21741;SDS011;11033;47.490;11.116;2023-04-05T13:56:39;5.05;;;4.65;;
21741;SDS011;11033;47.490;11.116;2023-04-05T13:59:05;5.70;;;5.20;;
21741;SDS011;11033;47.490;11.116;2023-04-05T14:01:32;5.90;;;4.97;;
21741;SDS011;11033;47.490;11.116;2023-04-05T14:03:57;6.28;;;5.55;;
21741;SDS011;11033;47.490;11.116;2023-04-05T14:06:22;7.57;;;5.43;;
21741;SDS011;11033;47.490;11.116;2023-04-05T14:08:48;6.20;;;5.15;;
21741;SDS011;11033;47.490;11.116;2023-04-05T14:13:44;6.30;;;5.70;;
21741;SDS011;11033;47.490;11.116;2023-04-05T14:16:09;7.03;;;6.17;;
21741;SDS011;11033;47.490;11.116;2023-04-05T14:18:35;6.82;;;5.90;;
21741;SDS011;11033;47.490;11.116;2023-04-05T14:21:00;6.17;;;5.50;;
21741;SDS011;11033;47.490;11.116;2023-04-05T14:23:25;11.23;;;6.35;;
21741;SDS011;11033;47.490;11.116;2023-04-05T14:25:51;7.17;;;6.57;;
21741;SDS011;11033;47.490;11.116;2023-04-05T14:28:16;7.03;;;6.35;;
21741;SDS011;11033;47.490;11.116;2023-04-05T14:30:41;6.50;;;5.93;;
21741;SDS011;11033;47.490;11.116;2023-04-05T14:33:07;6.70;;;6.10;;
21741;SDS011;11033;47.490;11.116;2023-04-05T14:35:32;6.00;;;5.50;;
21741;SDS011;11033;47.490;11.116;2023-04-05T14:37:58;6.60;;;6.00;;
21741;SDS011;11033;47.490;11.116;2023-04-05T14:40:23;6.30;;;5.70;;
21741;SDS011;11033;47.490;11.116;2023-04-05T14:42:48;6.37;;;5.60;;
21741;SDS011;11033;47.490;11.116;2023-04-05T14:45:13;7.30;;;6.60;;
21741;SDS011;11033;47.490;11.116;2023-04-05T14:47:39;7.03;;;6.20;;
21741;SDS011;11033;47.490;11.116;2023-04-05T14:50:04;7.40;;;6.70;;
21741;SDS011;11033;47.490;11.116;2023-04-05T14:52:31;8.05;;;7.28;;
21741;SDS011;11033;47.490;11.116;2023-04-05T14:54:57;7.65;;;6.65;;
21741;SDS011;11033;47.490;11.116;2023-04-05T14:57:22;7.22;;;6.38;;